createdAt,value
2017-06-18T00:01:22.731Z,18.40
2017-06-18T00:03:50.264Z,18.40
2017-06-18T00:06:17.786Z,18.40
2017-06-18T00:08:45.311Z,18.40
2017-06-18T00:11:13.234Z,18.40
2017-06-18T00:13:40.755Z,18.40
2017-06-18T00:16:08.298Z,18.40
2017-06-18T00:18:35.794Z,18.40
2017-06-18T00:21:03.342Z,18.40
2017-06-18T00:23:30.880Z,18.40
2017-06-18T00:25:58.391Z,18.40
2017-06-18T00:28:25.929Z,18.40
2017-06-18T00:30:54.409Z,18.50
2017-06-18T00:33:21.962Z,18.40
2017-06-18T00:35:49.489Z,18.40
2017-06-18T00:38:17.030Z,18.40
2017-06-18T00:40:44.619Z,18.40
2017-06-18T00:43:12.148Z,18.40
2017-06-18T00:45:39.646Z,18.50
2017-06-18T00:48:07.154Z,18.40
2017-06-18T00:50:34.650Z,18.40
2017-06-18T00:53:02.171Z,18.40
2017-06-18T00:55:30.053Z,18.40
2017-06-18T00:57:57.954Z,18.40
2017-06-18T01:00:25.442Z,18.40
2017-06-18T01:02:52.958Z,18.40
2017-06-18T01:05:20.445Z,18.50
2017-06-18T01:07:47.957Z,18.60
2017-06-18T01:10:15.450Z,18.50
2017-06-18T01:12:42.964Z,18.50
2017-06-18T01:15:10.454Z,18.40
2017-06-18T01:17:39.079Z,18.30
2017-06-18T01:20:06.969Z,18.40
2017-06-18T01:22:34.497Z,18.40
2017-06-18T01:25:01.997Z,18.40
2017-06-18T01:27:29.497Z,18.50
2017-06-18T01:29:56.989Z,18.60
2017-06-18T01:32:24.516Z,18.60
2017-06-18T01:34:52.794Z,18.50
2017-06-18T01:37:20.297Z,18.50
2017-06-18T01:39:47.801Z,18.40
2017-06-18T01:42:15.310Z,18.40
2017-06-18T01:44:42.826Z,18.40
2017-06-18T01:47:10.311Z,18.40
2017-06-18T01:49:38.829Z,18.50
2017-06-18T01:52:06.804Z,18.60
2017-06-18T01:54:35.038Z,18.60
2017-06-18T01:57:02.549Z,18.60
2017-06-18T01:59:30.033Z,18.60
2017-06-18T02:01:57.545Z,18.50
2017-06-18T02:04:25.033Z,18.40
2017-06-18T02:06:52.559Z,18.40
2017-06-18T02:09:20.986Z,18.40
2017-06-18T02:11:49.375Z,18.50
2017-06-18T02:14:16.882Z,18.50
2017-06-18T02:16:44.389Z,18.50
2017-06-18T02:19:11.893Z,18.60
2017-06-18T02:21:39.381Z,18.60
2017-06-18T02:24:06.909Z,18.50
2017-06-18T02:26:34.398Z,18.40
2017-06-18T02:29:01.916Z,18.30
2017-06-18T02:31:29.421Z,18.30
2017-06-18T02:33:56.913Z,18.30
2017-06-18T02:36:24.415Z,18.30
2017-06-18T02:38:51.911Z,18.20
2017-06-18T02:41:21.358Z,18.30
2017-06-18T02:43:48.847Z,18.30
2017-06-18T02:46:16.333Z,18.30
2017-06-18T02:48:43.841Z,18.30
2017-06-18T02:51:11.325Z,18.20
2017-06-18T02:53:38.821Z,18.30
2017-06-18T02:56:06.301Z,18.30
2017-06-18T02:58:34.789Z,18.20
2017-06-18T03:01:02.278Z,18.20
2017-06-18T03:03:29.769Z,18.10
2017-06-18T03:05:57.277Z,18.00
2017-06-18T03:08:24.760Z,18.10
2017-06-18T03:10:52.257Z,18.10
2017-06-18T03:13:20.774Z,18.10
2017-06-18T03:15:48.274Z,18.10
2017-06-18T03:18:15.753Z,18.10
2017-06-18T03:20:43.266Z,18.10
2017-06-18T03:23:16.532Z,18.10
2017-06-18T03:25:44.044Z,18.20
2017-06-18T03:28:11.534Z,18.20
2017-06-18T03:30:39.021Z,18.30
2017-06-18T03:33:06.514Z,18.30
2017-06-18T03:35:33.997Z,18.30
2017-06-18T03:38:01.497Z,18.30
2017-06-18T03:40:29.389Z,18.20
2017-06-18T03:42:56.913Z,18.20
2017-06-18T03:45:24.406Z,18.20
2017-06-18T03:47:51.889Z,18.10
2017-06-18T03:50:19.618Z,18.10
2017-06-18T03:52:49.126Z,18.10
2017-06-18T03:55:17.537Z,18.10
2017-06-18T03:57:45.021Z,18.10
2017-06-18T04:03:23.884Z,18.10
2017-06-18T04:05:51.763Z,18.20
2017-06-18T04:08:21.211Z,18.20
2017-06-18T04:10:48.694Z,18.20
2017-06-18T04:13:16.213Z,18.20
2017-06-18T04:15:43.694Z,18.20
2017-06-18T04:18:11.177Z,18.20
2017-06-18T04:20:39.578Z,18.30
2017-06-18T04:23:07.056Z,18.30
2017-06-18T04:25:34.562Z,18.20
2017-06-18T04:28:02.042Z,18.10
2017-06-18T04:30:29.542Z,18.00
2017-06-18T04:32:57.037Z,18.10
2017-06-18T04:35:25.470Z,18.10
2017-06-18T04:37:52.967Z,18.10
2017-06-18T04:40:20.450Z,18.10
2017-06-18T04:42:48.362Z,18.10
2017-06-18T04:45:15.848Z,18.10
2017-06-18T04:47:43.329Z,18.10
2017-06-18T04:50:11.227Z,18.20
2017-06-18T04:52:38.722Z,18.20
2017-06-18T04:55:08.174Z,18.10
2017-06-18T04:57:35.658Z,18.20
2017-06-18T05:00:03.133Z,18.20
2017-06-18T05:02:30.634Z,18.20
2017-06-18T05:04:58.114Z,18.20
2017-06-18T05:07:25.633Z,18.30
2017-06-18T05:09:53.505Z,18.40
2017-06-18T05:12:21.022Z,18.40
2017-06-18T05:14:48.518Z,18.40
2017-06-18T05:17:16.397Z,18.40
2017-06-18T05:19:44.297Z,18.30
2017-06-18T05:22:11.778Z,18.30
2017-06-18T05:24:39.261Z,18.20
2017-06-18T05:27:06.762Z,18.20
2017-06-18T05:29:34.241Z,18.20
2017-06-18T05:32:01.758Z,18.20
2017-06-18T05:34:29.246Z,18.20
2017-06-18T05:36:57.669Z,18.20
2017-06-18T05:39:26.070Z,18.20
2017-06-18T05:41:53.549Z,18.30
2017-06-18T05:44:21.061Z,18.30
2017-06-18T05:46:48.940Z,18.30
2017-06-18T05:49:16.422Z,18.30
2017-06-18T05:51:43.921Z,18.40
2017-06-18T05:54:12.337Z,18.40
2017-06-18T05:56:39.870Z,18.50
2017-06-18T05:59:07.349Z,18.60
2017-06-18T06:01:35.777Z,18.80
2017-06-18T06:04:03.285Z,19.00
2017-06-18T06:06:30.762Z,19.30
2017-06-18T06:08:58.268Z,19.30
2017-06-18T06:11:26.713Z,19.30
2017-06-18T06:13:55.085Z,19.50
2017-06-18T06:16:22.589Z,19.50
2017-06-18T06:18:50.069Z,19.50
2017-06-18T06:21:17.989Z,19.40
2017-06-18T06:23:45.466Z,19.50
2017-06-18T06:26:12.941Z,19.60
2017-06-18T06:28:40.453Z,19.80
2017-06-18T06:31:07.950Z,20.00
2017-06-18T06:33:35.462Z,20.40
2017-06-18T06:36:02.938Z,20.40
2017-06-18T06:38:30.426Z,20.60
2017-06-18T06:40:57.933Z,20.50
2017-06-18T06:43:25.426Z,20.50
2017-06-18T06:45:52.957Z,20.30
2017-06-18T06:48:21.685Z,20.30
2017-06-18T06:50:49.170Z,20.40
2017-06-18T06:53:18.608Z,20.50
2017-06-18T06:55:46.089Z,20.50
2017-06-18T06:58:13.573Z,20.40
2017-06-18T07:00:41.057Z,20.30
2017-06-18T07:03:08.586Z,20.30
2017-06-18T07:05:36.090Z,20.40
2017-06-18T07:08:03.574Z,20.40
2017-06-18T07:10:31.079Z,20.40
2017-06-18T07:12:58.578Z,20.50
2017-06-18T07:15:26.081Z,20.60
2017-06-18T07:17:53.557Z,21.00
2017-06-18T07:20:22.977Z,21.30
2017-06-18T07:22:50.450Z,21.30
2017-06-18T07:25:17.920Z,21.30
2017-06-18T07:27:45.435Z,21.40
2017-06-18T07:30:12.931Z,21.30
2017-06-18T07:32:42.377Z,21.30
2017-06-18T07:35:09.861Z,21.40
2017-06-18T07:37:38.270Z,21.40
2017-06-18T07:40:05.749Z,21.60
2017-06-18T07:42:33.621Z,21.30
2017-06-18T07:45:01.121Z,21.30
2017-06-18T07:47:28.600Z,21.40
2017-06-18T07:49:56.095Z,21.10
2017-06-18T07:52:23.577Z,21.10
2017-06-18T07:54:51.091Z,21.20
2017-06-18T07:57:18.578Z,21.40
2017-06-18T07:59:46.058Z,21.40
2017-06-18T08:02:13.559Z,21.60
2017-06-18T08:04:41.217Z,21.90
2017-06-18T08:07:09.424Z,21.90
2017-06-18T08:09:36.918Z,21.90
2017-06-18T08:12:04.665Z,22.10
2017-06-18T08:14:32.153Z,22.10
2017-06-18T08:16:59.634Z,22.30
2017-06-18T08:19:27.529Z,22.60
2017-06-18T08:21:55.946Z,22.60
2017-06-18T08:24:23.444Z,22.70
2017-06-18T08:26:51.862Z,22.70
2017-06-18T08:29:19.376Z,22.70
2017-06-18T08:31:47.245Z,22.30
2017-06-18T08:34:16.062Z,22.20
2017-06-18T08:36:43.549Z,22.20
2017-06-18T08:39:11.025Z,22.20
2017-06-18T08:41:38.518Z,22.40
2017-06-18T08:44:06.002Z,22.70
2017-06-18T08:46:33.517Z,22.80
2017-06-18T08:49:00.993Z,22.80
2017-06-18T08:51:28.469Z,22.90
2017-06-18T08:53:55.962Z,23.00
2017-06-18T08:56:23.437Z,23.20
2017-06-18T08:58:50.937Z,23.20
2017-06-18T09:01:18.501Z,23.10
2017-06-18T09:03:46.014Z,22.90
2017-06-18T09:06:13.882Z,22.80
2017-06-18T09:08:41.762Z,22.70
2017-06-18T09:11:09.275Z,22.70
2017-06-18T09:13:36.756Z,22.50
2017-06-18T09:16:04.661Z,22.40
2017-06-18T09:18:32.161Z,22.40
2017-06-18T09:20:59.642Z,22.50
2017-06-18T09:23:27.533Z,22.40
2017-06-18T09:25:55.056Z,22.40
2017-06-18T09:28:22.569Z,22.30
2017-06-18T09:30:50.041Z,22.40
2017-06-18T09:33:18.330Z,22.30
2017-06-18T09:35:45.834Z,22.30
2017-06-18T09:38:14.252Z,22.50
2017-06-18T09:40:41.761Z,22.50
2017-06-18T09:43:09.234Z,22.70
2017-06-18T09:45:36.730Z,22.60
2017-06-18T09:48:04.252Z,22.50
2017-06-18T09:50:31.730Z,22.50
2017-06-18T09:53:00.145Z,22.60
2017-06-18T09:55:28.049Z,22.50
2017-06-18T09:57:55.534Z,22.50
2017-06-18T10:00:23.046Z,22.60
2017-06-18T10:02:51.322Z,22.60
2017-06-18T10:05:18.803Z,22.60
2017-06-18T10:07:46.309Z,22.70
2017-06-18T10:10:13.807Z,22.70
2017-06-18T10:12:41.281Z,22.80
2017-06-18T10:15:08.781Z,22.80
2017-06-18T10:17:36.262Z,22.90
2017-06-18T10:20:04.204Z,22.90
2017-06-18T10:22:31.684Z,22.90
2017-06-18T10:24:59.168Z,23.00
2017-06-18T10:27:28.609Z,23.10
2017-06-18T10:29:56.769Z,23.20
2017-06-18T10:32:24.277Z,23.20
2017-06-18T10:34:52.158Z,23.10
2017-06-18T10:37:19.626Z,23.10
2017-06-18T10:39:47.125Z,23.30
2017-06-18T10:42:14.608Z,23.70
2017-06-18T10:44:42.501Z,23.60
2017-06-18T10:47:09.982Z,23.60
2017-06-18T10:49:37.481Z,23.50
2017-06-18T10:52:05.381Z,23.80
2017-06-18T10:54:32.881Z,23.80
2017-06-18T10:57:00.365Z,23.80
2017-06-18T10:59:27.879Z,23.70
2017-06-18T11:01:55.375Z,23.80
2017-06-18T11:04:23.819Z,23.80
2017-06-18T11:06:51.341Z,23.90
2017-06-18T11:09:18.834Z,24.00
2017-06-18T11:11:46.325Z,24.00
2017-06-18T11:14:13.823Z,23.90
2017-06-18T11:16:41.310Z,23.90
2017-06-18T11:19:08.834Z,24.00
2017-06-18T11:21:36.337Z,24.00
2017-06-18T11:24:03.833Z,24.00
2017-06-18T11:26:31.411Z,23.90
2017-06-18T11:29:00.898Z,23.80
2017-06-18T11:31:28.393Z,23.70
2017-06-18T11:33:55.914Z,23.60
2017-06-18T11:36:23.401Z,23.60
2017-06-18T11:38:50.909Z,23.80
2017-06-18T11:41:18.390Z,23.80
2017-06-18T11:43:45.890Z,23.90
2017-06-18T11:46:13.376Z,24.10
2017-06-18T11:48:40.870Z,24.30
2017-06-18T11:51:08.373Z,24.30
2017-06-18T11:53:35.871Z,23.90
2017-06-18T11:56:03.399Z,23.80
2017-06-18T11:58:30.910Z,23.80
2017-06-18T12:00:59.359Z,23.80
2017-06-18T12:03:27.264Z,23.90
2017-06-18T12:05:54.746Z,23.90
2017-06-18T12:08:22.261Z,23.70
2017-06-18T12:10:49.754Z,23.80
2017-06-18T12:13:17.256Z,24.00
2017-06-18T12:15:45.133Z,24.10
2017-06-18T12:18:12.642Z,24.10
2017-06-18T12:20:42.092Z,24.00
2017-06-18T12:23:09.570Z,23.90
2017-06-18T12:25:37.071Z,24.20
2017-06-18T12:28:04.561Z,24.20
2017-06-18T12:30:32.062Z,24.40
2017-06-18T12:32:59.551Z,24.40
2017-06-18T12:35:28.982Z,24.50
2017-06-18T12:37:57.358Z,24.40
2017-06-18T12:40:24.862Z,24.50
2017-06-18T12:42:52.349Z,24.60
2017-06-18T12:45:20.258Z,24.50
2017-06-18T12:47:47.741Z,24.50
2017-06-18T12:50:17.193Z,24.50
2017-06-18T12:52:44.707Z,24.60
2017-06-18T12:55:12.222Z,24.60
2017-06-18T12:57:39.700Z,24.70
2017-06-18T13:00:07.217Z,24.70
2017-06-18T13:02:35.997Z,24.50
2017-06-18T13:05:03.507Z,24.50
2017-06-18T13:07:30.994Z,24.50
2017-06-18T13:09:58.497Z,24.60
2017-06-18T13:12:26.001Z,24.80
2017-06-18T13:14:55.449Z,24.90
2017-06-18T13:17:22.938Z,24.90
2017-06-18T13:19:50.491Z,24.80
2017-06-18T13:22:17.989Z,24.90
2017-06-18T13:24:45.494Z,24.70
2017-06-18T13:27:12.973Z,24.60
2017-06-18T13:29:40.465Z,24.60
2017-06-18T13:32:07.957Z,24.90
2017-06-18T13:34:35.458Z,25.10
2017-06-18T13:37:02.978Z,25.10
2017-06-18T13:39:30.478Z,25.20
2017-06-18T13:41:58.025Z,25.10
2017-06-18T13:44:25.530Z,25.00
2017-06-18T13:46:53.017Z,25.10
2017-06-18T13:49:20.522Z,25.10
2017-06-18T13:51:49.307Z,25.00
2017-06-18T13:54:16.837Z,25.00
2017-06-18T13:56:44.317Z,25.10
2017-06-18T13:59:11.917Z,25.30
2017-06-18T14:01:40.300Z,25.30
2017-06-18T14:04:07.805Z,25.50
2017-06-18T14:06:35.277Z,25.30
2017-06-18T14:09:02.775Z,25.30
2017-06-18T14:11:30.249Z,25.20
2017-06-18T14:13:57.745Z,25.20
2017-06-18T14:16:25.242Z,25.30
2017-06-18T14:18:52.745Z,25.30
2017-06-18T14:21:20.230Z,25.30
2017-06-18T14:23:47.737Z,25.30
2017-06-18T14:26:15.225Z,25.20
2017-06-18T14:28:42.721Z,25.20
2017-06-18T14:31:11.173Z,25.20
2017-06-18T14:33:38.674Z,25.10
2017-06-18T14:36:06.157Z,25.30
2017-06-18T14:38:33.661Z,25.40
2017-06-18T14:41:01.153Z,25.40
2017-06-18T14:43:28.650Z,25.50
2017-06-18T14:45:56.130Z,25.50
2017-06-18T14:48:25.541Z,25.30
2017-06-18T14:50:53.029Z,25.40
2017-06-18T14:53:20.541Z,25.50
2017-06-18T14:55:48.413Z,25.60
2017-06-18T14:58:16.297Z,25.60
2017-06-18T15:00:44.737Z,25.60
2017-06-18T15:03:13.128Z,25.50
2017-06-18T15:05:41.001Z,25.80
2017-06-18T15:08:08.497Z,25.80
2017-06-18T15:10:35.985Z,25.70
2017-06-18T15:13:03.522Z,25.60
2017-06-18T15:15:31.059Z,25.40
2017-06-18T15:17:58.570Z,25.40
2017-06-18T15:20:26.050Z,25.50
2017-06-18T15:22:53.555Z,25.50
2017-06-18T15:25:21.272Z,25.50
2017-06-18T15:27:48.818Z,25.60
2017-06-18T15:30:17.636Z,25.70
2017-06-18T15:32:45.129Z,25.70
2017-06-18T15:35:12.617Z,25.90
2017-06-18T15:37:40.115Z,25.90
2017-06-18T15:40:07.589Z,25.70
2017-06-18T15:42:35.090Z,25.60
2017-06-18T15:45:03.901Z,25.80
2017-06-18T15:47:31.402Z,25.80
2017-06-18T15:49:58.886Z,25.90
2017-06-18T15:52:26.790Z,25.80
2017-06-18T15:54:54.266Z,25.80
2017-06-18T15:57:21.762Z,25.80
2017-06-18T15:59:49.244Z,25.70
2017-06-18T16:02:16.734Z,25.70
2017-06-18T16:04:45.156Z,25.70
2017-06-18T16:07:13.050Z,25.70
2017-06-18T16:09:40.538Z,25.70
2017-06-18T16:12:08.634Z,26.00
2017-06-18T16:14:36.122Z,26.10
2017-06-18T16:17:03.632Z,26.20
2017-06-18T16:19:31.110Z,26.20
2017-06-18T16:21:58.606Z,26.30
2017-06-18T16:24:26.094Z,26.30
2017-06-18T16:26:55.234Z,26.30
2017-06-18T16:29:22.717Z,26.20
2017-06-18T16:31:50.213Z,26.20
2017-06-18T16:34:18.630Z,26.40
2017-06-18T16:36:46.523Z,26.50
2017-06-18T16:39:14.041Z,26.50
2017-06-18T16:41:41.929Z,26.50
2017-06-18T16:44:09.814Z,26.70
2017-06-18T16:46:37.373Z,26.70
2017-06-18T16:49:05.817Z,26.70
2017-06-18T16:51:33.346Z,26.80
2017-06-18T16:54:00.818Z,26.90
2017-06-18T16:56:28.305Z,27.10
2017-06-18T16:58:56.214Z,27.10
2017-06-18T17:01:23.686Z,27.10
2017-06-18T17:03:51.186Z,27.50
2017-06-18T17:06:19.061Z,27.80
2017-06-18T17:08:46.935Z,28.00
2017-06-18T17:11:14.438Z,28.00
2017-06-18T17:13:41.906Z,28.30
2017-06-18T17:16:09.418Z,28.60
2017-06-18T17:18:36.894Z,28.40
2017-06-18T17:21:10.930Z,28.20
2017-06-18T17:23:38.402Z,28.10
2017-06-18T17:26:05.886Z,28.00
2017-06-18T17:28:33.389Z,27.90
2017-06-18T17:31:00.866Z,27.90
2017-06-18T17:33:28.378Z,28.00
2017-06-18T17:35:55.857Z,27.90
2017-06-18T17:38:23.337Z,28.20
2017-06-18T17:40:50.842Z,28.30
2017-06-18T17:43:19.217Z,28.00
2017-06-18T17:45:46.737Z,27.80
2017-06-18T17:48:14.617Z,27.50
2017-06-18T17:50:42.485Z,27.30
2017-06-18T17:53:12.322Z,27.10
2017-06-18T17:55:39.808Z,27.10
2017-06-18T17:58:07.317Z,27.00
2017-06-18T18:00:35.194Z,26.70
2017-06-18T18:03:02.678Z,26.70
2017-06-18T18:05:30.174Z,26.50
2017-06-18T18:07:57.649Z,26.40
2017-06-18T18:10:25.565Z,26.20
2017-06-18T18:12:53.047Z,26.20
2017-06-18T18:15:21.262Z,26.00
2017-06-18T18:17:48.779Z,26.00
2017-06-18T18:20:16.263Z,25.80
2017-06-18T18:22:44.165Z,25.70
2017-06-18T18:25:11.649Z,25.70
2017-06-18T18:27:39.138Z,25.60
2017-06-18T18:30:06.649Z,25.60
2017-06-18T18:32:34.125Z,25.50
2017-06-18T18:35:01.644Z,25.40
2017-06-18T18:37:29.142Z,25.40
2017-06-18T18:39:56.638Z,25.40
2017-06-18T18:42:24.216Z,25.30
2017-06-18T18:44:52.006Z,25.30
2017-06-18T18:47:19.483Z,25.20
2017-06-18T18:49:46.973Z,25.10
2017-06-18T18:52:15.402Z,25.10
2017-06-18T18:54:45.542Z,25.10
2017-06-18T18:57:13.030Z,25.00
2017-06-18T18:59:40.534Z,25.00
2017-06-18T19:02:08.042Z,25.00
2017-06-18T19:04:35.529Z,24.90
2017-06-18T19:07:03.061Z,24.90
2017-06-18T19:09:30.556Z,24.80
2017-06-18T19:11:58.077Z,24.80
2017-06-18T19:14:25.557Z,24.70
2017-06-18T19:16:53.983Z,24.70
2017-06-18T19:19:21.928Z,24.60
2017-06-18T19:21:49.494Z,24.60
2017-06-18T19:24:17.040Z,24.50
2017-06-18T19:26:44.541Z,24.50
2017-06-18T19:29:12.489Z,24.40
2017-06-18T19:31:40.009Z,24.40
2017-06-18T19:34:07.528Z,24.30
2017-06-18T19:36:35.479Z,24.20
2017-06-18T19:39:03.034Z,24.20
2017-06-18T19:41:30.607Z,24.20
2017-06-18T19:43:58.127Z,24.20
2017-06-18T19:46:26.642Z,24.20
2017-06-18T19:48:54.554Z,24.00
2017-06-18T19:51:22.095Z,24.00
2017-06-18T19:53:49.590Z,23.80
2017-06-18T19:56:17.115Z,23.70
2017-06-18T19:58:45.589Z,23.60
2017-06-18T20:01:13.139Z,23.60
2017-06-18T20:03:40.668Z,23.40
2017-06-18T20:06:10.562Z,23.10
2017-06-18T20:08:38.118Z,23.10
2017-06-18T20:11:07.636Z,23.10
2017-06-18T20:13:36.089Z,23.00
2017-06-18T20:16:05.590Z,22.90
2017-06-18T20:18:34.047Z,22.70
2017-06-18T20:21:01.618Z,22.60
2017-06-18T20:23:29.120Z,22.50
2017-06-18T20:25:56.665Z,22.40
2017-06-18T20:28:24.212Z,22.40
2017-06-18T20:30:52.686Z,22.30
2017-06-18T20:33:20.212Z,22.20
2017-06-18T20:35:48.661Z,22.10
2017-06-18T20:38:16.613Z,21.90
2017-06-18T20:40:44.102Z,21.90
2017-06-18T20:43:12.946Z,21.80
2017-06-18T20:45:40.498Z,21.80
2017-06-18T20:48:08.003Z,21.60
2017-06-18T20:50:35.533Z,21.60
2017-06-18T20:53:03.106Z,21.50
2017-06-18T20:55:30.619Z,21.40
2017-06-18T20:57:58.153Z,21.30
2017-06-18T21:00:25.690Z,21.20
2017-06-18T21:02:53.569Z,21.00
2017-06-18T21:05:21.080Z,21.00
2017-06-18T21:07:48.622Z,20.90
2017-06-18T21:10:16.174Z,20.80
2017-06-18T21:12:43.720Z,20.70
2017-06-18T21:15:11.236Z,20.70
2017-06-18T21:17:38.792Z,20.60
2017-06-18T21:20:06.337Z,20.50
2017-06-18T21:22:33.908Z,20.50
2017-06-18T21:25:01.490Z,20.40
2017-06-18T21:27:29.049Z,20.30
2017-06-18T21:29:56.565Z,20.20
2017-06-18T21:32:24.095Z,20.10
2017-06-18T21:34:51.677Z,20.10
2017-06-18T21:37:19.204Z,20.00
2017-06-18T21:39:46.769Z,20.00
2017-06-18T21:42:14.327Z,19.90
2017-06-18T21:44:41.875Z,19.80
2017-06-18T21:47:09.421Z,19.70
2017-06-18T21:49:37.015Z,19.70
2017-06-18T21:52:04.603Z,19.70
2017-06-18T21:54:32.125Z,19.60
2017-06-18T21:56:59.684Z,19.60
2017-06-18T21:59:27.236Z,19.60
2017-06-18T22:01:54.801Z,19.60
2017-06-18T22:04:22.330Z,19.50
2017-06-18T22:06:49.837Z,19.50
2017-06-18T22:09:17.385Z,19.40
2017-06-18T22:11:44.938Z,19.30
2017-06-18T22:14:12.477Z,19.10
2017-06-18T22:16:40.021Z,19.10
2017-06-18T22:19:07.570Z,19.00
2017-06-18T22:21:35.097Z,18.90
2017-06-18T22:24:02.675Z,18.80
2017-06-18T22:26:30.170Z,18.80
2017-06-18T22:28:57.742Z,18.70
2017-06-18T22:31:25.282Z,18.70
2017-06-18T22:33:52.822Z,18.70
2017-06-18T22:36:20.358Z,18.60
2017-06-18T22:38:49.841Z,18.50
2017-06-18T22:41:17.389Z,18.50
2017-06-18T22:43:44.932Z,18.40
2017-06-18T22:46:12.534Z,18.40
2017-06-18T22:48:40.060Z,18.40
2017-06-18T22:51:07.600Z,18.40
2017-06-18T22:53:35.156Z,18.40
2017-06-18T22:56:02.714Z,18.30
2017-06-18T22:58:30.267Z,18.30
2017-06-18T23:00:57.799Z,18.20
2017-06-18T23:03:25.416Z,18.10
2017-06-18T23:05:52.934Z,18.00
2017-06-18T23:08:20.480Z,18.00
2017-06-18T23:10:48.030Z,17.90
2017-06-18T23:13:16.013Z,17.90
2017-06-18T23:15:43.556Z,17.90
2017-06-18T23:18:11.084Z,17.80
2017-06-18T23:20:38.569Z,17.80
2017-06-18T23:23:06.071Z,17.70
2017-06-18T23:25:33.554Z,17.70
2017-06-18T23:28:01.070Z,17.60
2017-06-18T23:30:28.554Z,17.60
2017-06-18T23:32:56.974Z,17.60
2017-06-18T23:35:25.371Z,17.60
2017-06-18T23:37:52.854Z,17.50
2017-06-18T23:40:20.375Z,17.50
2017-06-18T23:42:48.253Z,17.60
2017-06-18T23:45:15.745Z,17.60
2017-06-18T23:47:43.237Z,17.70
2017-06-18T23:50:10.727Z,17.80
2017-06-18T23:52:38.249Z,17.80
2017-06-18T23:55:06.689Z,17.80
2017-06-18T23:57:34.173Z,17.90
